Time;durP1;ratioP1;P1;durP2;ratioP2;P2;SDS_P1;SDS_P2;PMS_P1;PMS_P2;Temp;Humidity;BMP_temperature;BMP_pressure;BME280_temperature;BME280_humidity;BME280_pressure;Samples;Min_cycle;Max_cycle;Signal;HPM_P1;HPM_P2
2023/07/08 00:02:10;;;;;;;3.47;2.73;;;22.20;44.20;;;;;;5070029;28;20655;-73
2023/07/08 00:04:39;;;;;;;2.47;2.27;;;22.10;43.20;;;;;;5069955;28;20634;-72
2023/07/08 00:07:12;;;;;;;3.37;2.57;;;21.90;43.70;;;;;;5069781;28;20655;-73
2023/07/08 00:09:41;;;;;;;6.50;2.83;;;21.90;44.40;;;;;;5069020;28;20637;-73
2023/07/08 00:12:12;;;;;;;3.13;2.83;;;21.90;44.40;;;;;;5069535;28;21357;-73
2023/07/08 00:14:39;;;;;;;2.93;2.17;;;21.80;44.90;;;;;;5069846;28;20622;-73
2023/07/08 00:17:15;;;;;;;5.00;2.70;;;21.80;45.50;;;;;;5064898;28;20763;-73
2023/07/08 00:20:11;;;;;;;3.57;2.93;;;21.70;46.70;;;;;;5067373;28;20669;-72
2023/07/08 00:22:40;;;;;;;4.73;3.60;;;21.70;46.70;;;;;;5067215;28;20662;-72
2023/07/08 00:25:07;;;;;;;4.10;3.30;;;21.60;46.40;;;;;;5067980;28;21073;-72
2023/07/08 00:27:34;;;;;;;3.93;3.37;;;21.50;47.20;;;;;;5067504;28;21085;-72
2023/07/08 00:30:01;;;;;;;3.73;2.87;;;21.50;47.10;;;;;;5068459;28;20647;-72
2023/07/08 00:32:28;;;;;;;3.23;2.90;;;21.50;47.10;;;;;;5069130;28;20673;-72
2023/07/08 00:34:54;;;;;;;5.20;3.90;;;21.40;47.60;;;;;;5068596;28;21029;-72
2023/07/08 00:37:21;;;;;;;4.47;3.30;;;21.40;46.50;;;;;;5068776;28;20650;-72
2023/07/08 00:39:49;;;;;;;3.77;2.90;;;21.30;46.20;;;;;;5068448;28;20633;-72
2023/07/08 00:42:19;;;;;;;3.50;2.97;;;21.40;46.50;;;;;;5068144;28;21022;-72
2023/07/08 00:44:46;;;;;;;3.90;3.33;;;21.30;45.90;;;;;;5069900;28;21193;-72
2023/07/08 00:47:15;;;;;;;5.67;3.33;;;21.20;46.20;;;;;;5069584;28;20642;-72
2023/07/08 00:49:46;;;;;;;4.00;3.30;;;21.10;45.40;;;;;;5067313;28;20626;-72
2023/07/08 00:52:22;;;;;;;3.93;2.70;;;21.00;46.40;;;;;;5069153;28;20682;-72
2023/07/08 00:54:53;;;;;;;4.03;2.80;;;20.80;47.50;;;;;;5062302;28;20629;-72
2023/07/08 00:57:20;;;;;;;4.07;2.47;;;20.80;47.90;;;;;;5069480;28;20645;-73
2023/07/08 00:59:54;;;;;;;6.73;2.87;;;20.50;48.20;;;;;;5060737;28;20624;-72
2023/07/08 01:02:24;;;;;;;4.83;3.03;;;20.50;48.70;;;;;;5068699;28;20684;-72
2023/07/08 01:04:56;;;;;;;4.43;3.13;;;20.40;49.10;;;;;;5069122;28;20618;-72
2023/07/08 01:07:25;;;;;;;5.30;4.37;;;20.30;49.10;;;;;;5068660;28;21008;-72
2023/07/08 01:09:59;;;;;;;4.77;2.83;;;20.20;49.10;;;;;;5068471;28;20622;-72
2023/07/08 01:12:30;;;;;;;4.70;3.23;;;20.10;49.00;;;;;;5068960;28;20750;-72
2023/07/08 01:15:02;;;;;;;3.40;3.10;;;20.10;49.70;;;;;;5068978;28;20992;-72
2023/07/08 01:17:32;;;;;;;4.17;3.40;;;20.10;49.90;;;;;;5068949;28;20637;-72
2023/07/08 01:20:00;;;;;;;3.50;2.70;;;20.10;50.90;;;;;;5068075;28;21202;-73
2023/07/08 01:22:32;;;;;;;4.07;3.30;;;20.00;50.20;;;;;;5068725;28;21030;-73
2023/07/08 01:25:03;;;;;;;3.20;2.90;;;19.90;51.20;;;;;;5068989;28;20626;-73
2023/07/08 01:27:32;;;;;;;5.07;4.00;;;19.80;51.40;;;;;;5068725;28;20637;-73
2023/07/08 01:30:00;;;;;;;4.67;2.90;;;19.80;51.60;;;;;;5067836;28;20622;-72
2023/07/08 01:32:28;;;;;;;3.43;3.13;;;19.80;51.90;;;;;;5068599;28;20698;-72
2023/07/08 01:35:01;;;;;;;3.50;3.07;;;19.70;51.90;;;;;;5068644;28;21051;-72
2023/07/08 01:37:36;;;;;;;5.20;3.00;;;19.70;51.70;;;;;;5065055;28;20654;-72
2023/07/08 01:40:27;;;;;;;3.13;2.83;;;19.60;51.60;;;;;;5067575;28;20712;-72
2023/07/08 01:42:57;;;;;;;7.53;4.10;;;19.60;52.10;;;;;;5064985;28;20669;-72
2023/07/08 01:45:30;;;;;;;3.37;2.70;;;19.60;51.60;;;;;;5068450;28;20653;-73
2023/07/08 01:48:01;;;;;;;5.27;4.03;;;19.50;52.50;;;;;;5068524;28;20622;-73
2023/07/08 01:50:32;;;;;;;3.27;2.97;;;19.40;52.90;;;;;;5067749;28;20650;-73
2023/07/08 01:53:05;;;;;;;5.93;3.03;;;19.50;53.10;;;;;;5066697;28;20725;-73
2023/07/08 01:55:32;;;;;;;5.47;2.80;;;19.40;52.80;;;;;;5068254;28;20649;-72
2023/07/08 01:58:00;;;;;;;7.50;2.80;;;19.40;53.40;;;;;;5068250;28;20625;-73
2023/07/08 02:00:28;;;;;;;3.20;2.57;;;19.30;53.00;;;;;;5067411;28;20668;-73
2023/07/08 02:02:57;;;;;;;3.53;3.10;;;19.10;53.10;;;;;;5067717;28;20864;-73
2023/07/08 02:05:25;;;;;;;5.10;3.80;;;19.10;53.80;;;;;;5068115;28;20726;-73
2023/07/08 02:07:52;;;;;;;6.07;3.40;;;19.10;54.20;;;;;;5067904;28;21530;-72
2023/07/08 02:10:20;;;;;;;3.70;3.07;;;19.00;54.00;;;;;;5066833;28;20656;-72
2023/07/08 02:12:47;;;;;;;3.87;3.20;;;19.00;54.10;;;;;;5068089;28;20632;-73
2023/07/08 02:15:14;;;;;;;5.23;4.13;;;19.00;54.10;;;;;;5067868;28;20692;-72
2023/07/08 02:17:41;;;;;;;5.33;4.10;;;19.00;54.50;;;;;;5068114;28;21005;-73
2023/07/08 02:20:09;;;;;;;5.40;3.37;;;19.00;54.40;;;;;;5060044;28;20629;-73
2023/07/08 02:22:37;;;;;;;3.30;3.00;;;19.00;54.50;;;;;;5067305;28;20670;-73
2023/07/08 02:25:06;;;;;;;4.20;2.87;;;18.90;54.40;;;;;;5067329;28;20622;-73
2023/07/08 02:27:35;;;;;;;4.03;2.87;;;18.80;53.80;;;;;;5067773;28;20630;-73
2023/07/08 02:30:03;;;;;;;4.33;2.90;;;18.90;54.60;;;;;;5067266;28;20618;-73
2023/07/08 02:32:35;;;;;;;4.40;3.53;;;18.90;54.80;;;;;;5067028;28;21286;-72
2023/07/08 02:35:03;;;;;;;3.47;2.70;;;18.90;55.00;;;;;;5067065;28;20687;-72
2023/07/08 02:37:32;;;;;;;4.30;3.00;;;18.80;55.40;;;;;;5067330;28;20629;-72
2023/07/08 02:39:58;;;;;;;4.23;3.77;;;18.90;55.90;;;;;;5066698;28;20737;-72
2023/07/08 02:42:26;;;;;;;3.47;2.90;;;18.80;55.20;;;;;;5066932;28;21127;-72
2023/07/08 02:44:54;;;;;;;3.63;2.37;;;18.70;55.20;;;;;;5067641;28;20630;-72
2023/07/08 02:47:22;;;;;;;8.23;3.20;;;18.70;55.20;;;;;;5066754;28;20646;-72
2023/07/08 02:49:50;;;;;;;3.10;2.47;;;18.80;55.70;;;;;;5066721;28;20657;-72
2023/07/08 02:52:18;;;;;;;3.63;2.80;;;18.80;55.60;;;;;;5067163;28;21041;-72
2023/07/08 02:54:46;;;;;;;4.60;3.50;;;18.80;55.00;;;;;;5067271;28;20623;-72
2023/07/08 02:57:14;;;;;;;3.40;2.63;;;18.90;54.00;;;;;;5067315;28;20661;-72
2023/07/08 02:59:43;;;;;;;4.40;3.40;;;18.90;52.70;;;;;;5065723;28;20629;-72
2023/07/08 03:02:12;;;;;;;3.80;3.30;;;19.00;52.50;;;;;;5066812;28;21242;-72
2023/07/08 03:04:40;;;;;;;5.07;2.83;;;19.00;52.60;;;;;;5067131;28;20630;-72
2023/07/08 03:07:11;;;;;;;3.67;2.90;;;19.00;52.60;;;;;;5067299;28;20681;-72
2023/07/08 03:09:39;;;;;;;3.80;2.60;;;19.10;53.30;;;;;;5065999;28;20634;-72
2023/07/08 03:12:09;;;;;;;3.80;2.80;;;19.20;53.70;;;;;;5067103;28;20654;-72
2023/07/08 03:14:36;;;;;;;4.53;3.03;;;19.10;53.20;;;;;;5067112;28;21008;-72
2023/07/08 03:17:03;;;;;;;4.10;3.23;;;19.00;52.40;;;;;;5066744;28;20669;-72
2023/07/08 03:19:32;;;;;;;7.90;3.40;;;19.10;53.60;;;;;;5066645;28;20626;-72
2023/07/08 03:21:59;;;;;;;4.10;2.40;;;19.00;54.10;;;;;;5066575;28;20661;-72
2023/07/08 03:24:25;;;;;;;3.50;2.53;;;19.00;53.10;;;;;;5066775;28;21199;-72
2023/07/08 03:26:54;;;;;;;4.83;3.03;;;18.90;52.50;;;;;;5066151;28;20646;-73
2023/07/08 03:29:21;;;;;;;3.07;2.40;;;19.00;53.60;;;;;;5066062;28;20615;-72
2023/07/08 03:31:48;;;;;;;5.50;3.37;;;19.00;54.50;;;;;;5066922;28;21062;-73
2023/07/08 03:34:17;;;;;;;4.70;3.13;;;19.10;54.00;;;;;;5066701;28;20667;-72
2023/07/08 03:36:49;;;;;;;3.07;2.70;;;19.10;53.00;;;;;;5066519;28;20755;-72
2023/07/08 03:39:16;;;;;;;4.23;2.90;;;19.20;53.20;;;;;;5065277;28;20622;-72
2023/07/08 03:41:43;;;;;;;3.33;2.90;;;19.20;53.20;;;;;;5067068;28;21042;-73
2023/07/08 03:44:10;;;;;;;4.80;2.63;;;19.30;53.10;;;;;;5067139;28;20656;-71
2023/07/08 03:46:36;;;;;;;3.57;2.37;;;19.30;54.40;;;;;;5066512;28;20749;-72
2023/07/08 03:49:03;;;;;;;3.00;2.20;;;19.30;54.00;;;;;;5065901;28;20632;-72
2023/07/08 03:51:32;;;;;;;6.10;3.53;;;19.30;53.70;;;;;;5066895;28;20764;-72
2023/07/08 03:54:01;;;;;;;2.33;2.13;;;19.20;54.90;;;;;;5065972;28;21682;-72
2023/07/08 03:56:27;;;;;;;4.03;2.80;;;19.10;55.00;;;;;;5066675;28;20658;-72
2023/07/08 03:58:54;;;;;;;3.90;3.50;;;19.10;54.40;;;;;;5066104;28;20628;-72
2023/07/08 04:01:23;;;;;;;7.23;2.70;;;19.10;55.10;;;;;;5066251;28;20664;-73
2023/07/08 04:03:52;;;;;;;4.13;3.70;;;19.10;55.40;;;;;;5066372;28;20628;-73
2023/07/08 04:06:20;;;;;;;3.50;3.20;;;19.00;55.20;;;;;;5066107;28;21269;-73
2023/07/08 04:08:47;;;;;;;11.27;3.30;;;19.10;55.30;;;;;;5065882;28;20669;-72
2023/07/08 04:11:17;;;;;;;3.03;2.43;;;19.10;55.30;;;;;;5066280;28;20645;-72
2023/07/08 04:13:45;;;;;;;3.60;3.30;;;19.10;55.00;;;;;;5066316;28;20990;-73
2023/07/08 04:16:18;;;;;;;2.40;2.20;;;19.10;55.70;;;;;;5068553;28;21086;-73
2023/07/08 04:18:44;;;;;;;3.60;2.80;;;19.20;55.70;;;;;;5069861;28;20626;-72
2023/07/08 04:21:11;;;;;;;4.63;3.27;;;19.20;56.00;;;;;;5069992;28;20668;-73
2023/07/08 04:23:38;;;;;;;4.17;2.80;;;19.20;56.60;;;;;;5069877;28;20673;-73
2023/07/08 04:26:05;;;;;;;2.37;2.17;;;19.30;56.70;;;;;;5068337;28;20650;-73
2023/07/08 04:28:33;;;;;;;3.50;2.07;;;19.20;56.90;;;;;;5069814;28;20732;-73
2023/07/08 04:31:00;;;;;;;3.67;3.20;;;19.30;57.20;;;;;;5068812;28;20743;-73
2023/07/08 04:33:27;;;;;;;3.87;3.47;;;19.30;58.10;;;;;;5069277;28;21032;-73
2023/07/08 04:35:54;;;;;;;5.40;3.63;;;19.40;58.70;;;;;;5069780;28;20757;-73
2023/07/08 04:38:23;;;;;;;3.90;3.03;;;19.50;58.00;;;;;;5069728;28;20629;-72
2023/07/08 04:40:50;;;;;;;5.57;3.70;;;19.60;58.00;;;;;;5069088;28;20658;-73
2023/07/08 04:43:17;;;;;;;3.27;2.50;;;19.70;57.90;;;;;;5069877;28;21105;-73
2023/07/08 04:45:50;;;;;;;4.27;3.10;;;19.80;58.10;;;;;;5069666;28;21213;-72
2023/07/08 04:48:20;;;;;;;3.10;2.80;;;20.00;57.80;;;;;;5069272;28;20707;-73
2023/07/08 04:50:51;;;;;;;4.57;3.23;;;20.20;54.50;;;;;;5069462;28;20649;-72
2023/07/08 04:53:18;;;;;;;4.87;2.83;;;20.40;53.90;;;;;;5069373;28;20626;-73
2023/07/08 04:55:56;;;;;;;4.13;3.07;;;20.50;53.40;;;;;;5069034;28;20689;-73
2023/07/08 04:58:24;;;;;;;3.60;2.70;;;20.60;53.60;;;;;;5065790;28;20618;-72
2023/07/08 05:00:52;;;;;;;2.90;2.43;;;20.70;53.40;;;;;;5068906;28;20667;-73
2023/07/08 05:03:18;;;;;;;5.57;3.13;;;20.70;54.50;;;;;;5069104;28;20669;-73
2023/07/08 05:05:45;;;;;;;3.17;2.87;;;20.70;55.00;;;;;;5069512;28;20657;-74
2023/07/08 05:08:13;;;;;;;5.13;3.40;;;20.80;53.90;;;;;;5069471;28;20644;-74
2023/07/08 05:10:40;;;;;;;4.30;3.10;;;20.90;54.40;;;;;;5068149;28;20664;-74
2023/07/08 05:13:07;;;;;;;4.70;2.73;;;21.00;54.20;;;;;;5068276;28;21066;-74
2023/07/08 05:15:35;;;;;;;6.63;3.07;;;21.00;53.70;;;;;;5068854;28;20650;-74
2023/07/08 05:18:03;;;;;;;3.87;3.10;;;21.10;54.20;;;;;;5069420;28;20633;-74
2023/07/08 05:20:30;;;;;;;3.57;2.73;;;21.20;53.40;;;;;;5068232;28;21187;-73
2023/07/08 05:22:57;;;;;;;4.83;3.10;;;21.30;52.70;;;;;;5068938;28;20661;-74
2023/07/08 05:25:24;;;;;;;5.27;3.17;;;21.30;53.30;;;;;;5068403;28;20657;-73
2023/07/08 05:27:51;;;;;;;4.57;3.33;;;21.40;53.90;;;;;;5068086;28;20633;-73
2023/07/08 05:30:19;;;;;;;3.10;2.70;;;21.40;53.50;;;;;;5068286;28;20738;-73
2023/07/08 05:32:46;;;;;;;5.23;2.97;;;21.40;52.30;;;;;;5068189;28;20630;-73
2023/07/08 05:35:15;;;;;;;4.20;3.80;;;21.50;52.90;;;;;;5068572;28;20716;-74
2023/07/08 05:37:44;;;;;;;4.60;3.03;;;21.50;52.80;;;;;;5068647;28;20635;-74
2023/07/08 05:40:11;;;;;;;3.47;3.00;;;21.50;53.60;;;;;;5067408;28;20683;-74
2023/07/08 05:42:38;;;;;;;2.83;2.60;;;21.50;54.20;;;;;;5068135;28;21238;-74
2023/07/08 05:45:06;;;;;;;5.43;2.90;;;21.50;53.20;;;;;;5067929;28;21191;-76
2023/07/08 05:47:33;;;;;;;3.95;3.35;;;21.50;52.20;;;;;;5068221;28;20691;-75
2023/07/08 05:50:00;;;;;;;4.13;2.97;;;21.60;52.20;;;;;;5067909;28;20288;-74
2023/07/08 05:52:28;;;;;;;3.20;2.90;;;21.70;52.40;;;;;;5067759;28;21060;-75
2023/07/08 05:54:55;;;;;;;3.80;3.20;;;21.80;52.30;;;;;;5068386;28;20637;-74
2023/07/08 05:57:24;;;;;;;7.03;3.77;;;21.90;52.00;;;;;;5067941;28;20650;-74
2023/07/08 05:59:51;;;;;;;4.27;3.40;;;21.90;53.30;;;;;;5067506;28;20615;-74
2023/07/08 06:02:19;;;;;;;4.57;3.67;;;21.90;52.50;;;;;;5068084;28;20995;-74
2023/07/08 06:04:46;;;;;;;4.10;3.30;;;21.90;52.30;;;;;;5067969;28;21042;-75
2023/07/08 06:07:13;;;;;;;4.03;3.27;;;21.80;54.90;;;;;;5067616;28;20747;-75
2023/07/08 06:09:41;;;;;;;3.60;3.30;;;21.70;55.40;;;;;;5067335;28;20627;-75
2023/07/08 06:12:08;;;;;;;6.37;3.53;;;21.80;52.60;;;;;;5067813;28;20690;-75
2023/07/08 06:14:35;;;;;;;3.90;3.20;;;21.80;52.70;;;;;;5067578;28;20640;-74
2023/07/08 06:17:04;;;;;;;4.13;2.90;;;22.00;52.10;;;;;;5068061;28;20741;-75
2023/07/08 06:19:31;;;;;;;5.10;2.87;;;22.10;52.60;;;;;;5066638;28;20661;-75
2023/07/08 06:22:01;;;;;;;3.87;2.97;;;22.30;52.10;;;;;;5066435;28;20652;-75
2023/07/08 06:24:28;;;;;;;4.67;3.30;;;22.40;51.90;;;;;;5066996;28;20643;-75
2023/07/08 06:26:56;;;;;;;4.97;3.17;;;22.50;52.30;;;;;;5064677;28;21253;-75
2023/07/08 06:29:23;;;;;;;3.23;2.60;;;22.60;52.60;;;;;;5066852;28;20629;-75
2023/07/08 06:31:49;;;;;;;5.40;3.10;;;22.60;52.60;;;;;;5067192;28;20664;-75
2023/07/08 06:34:16;;;;;;;2.87;2.60;;;22.70;52.20;;;;;;5066112;28;20631;-75
2023/07/08 06:36:43;;;;;;;2.47;2.27;;;22.60;53.50;;;;;;5067644;28;21222;-73
2023/07/08 06:39:11;;;;;;;4.45;3.20;;;22.60;53.30;;;;;;5064563;28;21160;-73
2023/07/08 06:41:38;;;;;;;6.63;3.47;;;22.50;54.00;;;;;;5067574;28;20313;-73
2023/07/08 06:44:06;;;;;;;4.50;3.07;;;22.50;54.00;;;;;;5067102;28;21231;-73
2023/07/08 06:46:33;;;;;;;3.60;2.90;;;22.60;54.70;;;;;;5067431;28;20652;-73
2023/07/08 06:49:00;;;;;;;4.47;3.40;;;22.70;53.70;;;;;;5066452;28;21396;-73
2023/07/08 06:51:27;;;;;;;3.73;3.37;;;22.90;53.70;;;;;;5067471;28;20665;-73
2023/07/08 06:53:54;;;;;;;3.20;2.90;;;23.10;53.50;;;;;;5066746;28;20628;-73
2023/07/08 06:56:25;;;;;;;3.10;2.50;;;23.20;52.30;;;;;;5066953;28;20664;-73
2023/07/08 06:58:52;;;;;;;2.97;2.33;;;23.30;53.70;;;;;;5066211;28;20686;-73
2023/07/08 07:01:20;;;;;;;3.17;2.73;;;23.30;53.50;;;;;;5067121;28;20665;-73
2023/07/08 07:03:48;;;;;;;3.37;2.80;;;23.40;53.50;;;;;;5066946;28;20682;-73
2023/07/08 07:06:14;;;;;;;3.27;2.63;;;23.40;53.70;;;;;;5067383;28;20657;-73
2023/07/08 07:08:41;;;;;;;3.20;2.47;;;23.40;53.00;;;;;;5066988;28;20642;-73
2023/07/08 07:11:08;;;;;;;4.17;2.60;;;23.40;53.90;;;;;;5066630;28;20663;-73
2023/07/08 07:13:35;;;;;;;3.80;2.57;;;23.40;53.20;;;;;;5067194;28;21154;-73
2023/07/08 07:16:01;;;;;;;2.57;2.37;;;23.50;53.60;;;;;;5066600;28;20655;-72
2023/07/08 07:18:30;;;;;;;3.50;2.70;;;23.50;53.20;;;;;;5067262;28;20969;-73
2023/07/08 07:20:56;;;;;;;3.33;2.50;;;23.50;55.40;;;;;;5064980;28;20659;-73
2023/07/08 07:23:23;;;;;;;3.40;2.03;;;23.50;54.00;;;;;;5067381;28;20666;-72
2023/07/08 07:25:50;;;;;;;5.40;2.93;;;23.40;53.60;;;;;;5066809;28;20658;-73
2023/07/08 07:28:17;;;;;;;3.03;2.55;;;23.50;54.10;;;;;;5066133;28;20752;-73
2023/07/08 07:30:45;;;;;;;2.60;2.30;;;23.50;53.50;;;;;;5066376;28;20304;-72
2023/07/08 07:33:12;;;;;;;4.30;2.80;;;23.60;53.80;;;;;;5066228;28;20750;-72
2023/07/08 07:35:44;;;;;;;3.30;3.00;;;23.70;54.10;;;;;;5066801;28;20234;-72
2023/07/08 07:38:11;;;;;;;3.03;1.90;;;23.70;55.80;;;;;;5066649;28;20721;-73
2023/07/08 07:40:37;;;;;;;3.60;2.87;;;23.70;54.00;;;;;;5065695;28;20664;-73
2023/07/08 07:43:04;;;;;;;4.60;2.37;;;23.70;54.20;;;;;;5065676;28;20753;-73
2023/07/08 07:45:31;;;;;;;2.23;1.80;;;23.80;54.10;;;;;;5066864;28;20667;-73
2023/07/08 07:47:58;;;;;;;2.67;2.13;;;23.70;54.40;;;;;;5066825;28;21217;-73
2023/07/08 07:50:25;;;;;;;3.57;2.50;;;23.70;55.10;;;;;;5065930;28;20659;-74
2023/07/08 07:53:20;;;;;;;3.17;2.30;;;23.80;55.80;;;;;;5069923;28;20744;-74
2023/07/08 07:55:47;;;;;;;3.50;2.30;;;23.80;56.30;;;;;;5066841;28;20679;-74
2023/07/08 07:58:14;;;;;;;2.83;2.47;;;24.00;54.50;;;;;;5070083;28;20619;-75
2023/07/08 08:00:43;;;;;;;2.40;1.80;;;24.20;55.00;;;;;;5069384;28;20820;-74
2023/07/08 08:03:12;;;;;;;2.97;1.50;;;24.20;54.40;;;;;;5066823;28;20656;-73
2023/07/08 08:05:38;;;;;;;3.23;2.13;;;24.20;54.30;;;;;;5070241;28;20899;-74
2023/07/08 08:08:18;;;;;;;3.20;2.17;;;24.20;54.60;;;;;;5068620;28;20644;-73
2023/07/08 08:10:45;;;;;;;2.30;2.17;;;24.10;54.60;;;;;;5069126;28;20653;-76
2023/07/08 08:13:15;;;;;;;5.03;2.20;;;24.10;54.70;;;;;;5069638;28;20638;-74
2023/07/08 08:15:42;;;;;;;2.20;2.00;;;24.10;54.50;;;;;;5069433;28;20663;-74
2023/07/08 08:18:16;;;;;;;2.87;1.80;;;24.30;55.30;;;;;;5067082;28;20632;-72
2023/07/08 08:20:56;;;;;;;2.63;2.20;;;24.50;55.30;;;;;;5067875;28;20746;-75
2023/07/08 08:23:36;;;;;;;1.90;1.80;;;24.70;54.50;;;;;;5068662;28;20665;-73
2023/07/08 08:26:10;;;;;;;4.60;2.30;;;24.90;54.90;;;;;;5068407;28;20652;-75
2023/07/08 08:28:40;;;;;;;2.97;2.30;;;24.80;53.70;;;;;;5069611;28;20967;-74
2023/07/08 08:31:16;;;;;;;2.33;1.73;;;24.70;53.70;;;;;;5068668;28;21899;-74
2023/07/08 08:37:02;;;;;;;1.93;1.73;;;24.90;53.90;;;;;;5014420;28;20677;-74
2023/07/08 08:39:38;;;;;;;2.07;1.60;;;25.10;53.90;;;;;;5064920;28;21046;-74
2023/07/08 08:42:11;;;;;;;1.33;1.27;;;25.00;53.60;;;;;;5067338;28;20664;-74
2023/07/08 08:44:44;;;;;;;2.77;2.33;;;24.90;53.60;;;;;;5067446;28;20700;-72
2023/07/08 08:47:35;;;;;;;1.97;1.37;;;25.00;53.60;;;;;;5067772;28;20655;-72
2023/07/08 08:50:24;;;;;;;3.53;1.90;;;25.20;53.20;;;;;;5066980;28;20666;-72
2023/07/08 08:53:02;;;;;;;2.80;2.07;;;25.30;52.70;;;;;;5066496;28;21118;-74
2023/07/08 08:55:39;;;;;;;2.00;1.80;;;25.30;53.20;;;;;;5068445;28;20698;-75
2023/07/08 08:58:19;;;;;;;2.63;2.43;;;25.40;54.00;;;;;;5067740;28;20623;-73
2023/07/08 09:01:05;;;;;;;1.73;1.57;;;25.30;55.20;;;;;;5068231;28;20644;-75
2023/07/08 09:03:54;;;;;;;1.70;1.60;;;25.60;53.70;;;;;;5068038;28;20748;-76
2023/07/08 09:06:30;;;;;;;1.50;1.40;;;26.10;51.20;;;;;;5066650;28;20706;-74
2023/07/08 09:09:03;;;;;;;1.50;1.40;;;26.40;50.70;;;;;;5067870;28;20636;-74
2023/07/08 09:11:43;;;;;;;2.37;1.70;;;26.60;50.60;;;;;;5068021;28;21122;-74
2023/07/08 09:14:16;;;;;;;2.47;2.20;;;26.90;49.20;;;;;;5068285;28;20956;-72
2023/07/08 09:16:48;;;;;;;1.90;1.53;;;27.20;49.70;;;;;;5067778;28;20660;-72
2023/07/08 09:19:19;;;;;;;2.63;2.10;;;27.50;49.30;;;;;;5064806;28;20754;-72
2023/07/08 09:21:49;;;;;;;2.10;1.90;;;27.70;49.00;;;;;;5069411;28;20234;-72
2023/07/08 09:24:19;;;;;;;1.83;1.57;;;27.70;48.80;;;;;;5068917;28;21024;-72
2023/07/08 09:26:50;;;;;;;2.40;1.40;;;27.70;48.20;;;;;;5068871;28;20655;-72
2023/07/08 09:29:19;;;;;;;2.40;1.70;;;27.80;47.30;;;;;;5065303;28;20633;-72
2023/07/08 09:31:45;;;;;;;1.50;1.40;;;28.00;47.10;;;;;;5068378;28;20996;-74
2023/07/08 09:34:15;;;;;;;1.60;1.50;;;27.90;48.00;;;;;;5067951;28;20644;-73
2023/07/08 09:36:44;;;;;;;2.07;1.50;;;28.00;48.60;;;;;;5067289;28;20676;-73
2023/07/08 09:39:13;;;;;;;1.83;1.53;;;28.10;47.70;;;;;;5066191;28;20721;-74
2023/07/08 09:41:40;;;;;;;1.60;1.50;;;28.10;47.80;;;;;;5066808;28;20969;-73
2023/07/08 09:44:17;;;;;;;1.60;1.33;;;28.20;47.30;;;;;;5067218;28;20665;-72
2023/07/08 09:46:46;;;;;;;2.03;1.83;;;27.90;47.80;;;;;;5060461;28;20664;-74
2023/07/08 09:49:23;;;;;;;1.63;1.40;;;27.60;48.00;;;;;;5066500;28;20767;-73
2023/07/08 09:51:51;;;;;;;1.60;1.20;;;27.70;47.50;;;;;;5068465;28;20653;-73
2023/07/08 09:54:18;;;;;;;1.80;1.23;;;28.00;47.10;;;;;;5068015;28;20632;-73
2023/07/08 09:56:59;;;;;;;2.00;1.60;;;28.40;47.30;;;;;;5068499;28;20672;-73
2023/07/08 09:59:32;;;;;;;2.67;2.47;;;28.50;46.20;;;;;;5064527;28;20607;-73
2023/07/08 10:02:02;;;;;;;2.13;1.73;;;28.30;46.50;;;;;;5067002;28;20694;-73
2023/07/08 10:04:29;;;;;;;2.50;1.80;;;28.20;47.40;;;;;;5067140;28;21063;-73
2023/07/08 10:06:56;;;;;;;1.93;1.30;;;28.20;47.40;;;;;;5066241;28;20660;-73
2023/07/08 10:09:25;;;;;;;3.10;2.10;;;28.10;47.70;;;;;;5066570;28;20636;-72
2023/07/08 10:11:59;;;;;;;1.73;1.60;;;28.00;47.40;;;;;;5066772;28;20691;-73
2023/07/08 10:14:32;;;;;;;2.20;2.00;;;28.00;48.30;;;;;;5066826;28;20630;-73
2023/07/08 10:16:59;;;;;;;2.30;2.10;;;27.80;48.50;;;;;;5067834;28;20660;-73
2023/07/08 10:19:26;;;;;;;4.93;2.30;;;27.80;48.70;;;;;;5066400;28;20632;-74
2023/07/08 10:22:16;;;;;;;2.07;1.80;;;27.80;48.80;;;;;;5068045;28;20650;-73
2023/07/08 10:24:59;;;;;;;2.10;1.60;;;27.90;49.30;;;;;;5063265;28;21256;-73
2023/07/08 10:27:34;;;;;;;4.83;2.53;;;28.00;48.80;;;;;;5061251;28;20653;-73
2023/07/08 10:30:14;;;;;;;2.00;1.80;;;28.10;48.80;;;;;;5067085;28;20640;-74
2023/07/08 10:32:53;;;;;;;1.90;1.80;;;28.10;49.10;;;;;;5066958;28;20676;-74
2023/07/08 10:35:22;;;;;;;1.90;1.73;;;28.40;48.80;;;;;;5059161;28;20631;-74
2023/07/08 10:38:05;;;;;;;2.07;1.90;;;28.50;47.80;;;;;;5067238;28;20639;-74
2023/07/08 10:40:40;;;;;;;2.40;2.10;;;28.70;48.20;;;;;;5063078;28;20673;-74
2023/07/08 10:43:30;;;;;;;2.10;1.63;;;29.00;46.80;;;;;;5065740;28;20972;-75
2023/07/08 10:46:12;;;;;;;2.40;2.20;;;29.30;47.00;;;;;;5064938;28;20662;-73
2023/07/08 10:48:57;;;;;;;1.57;1.47;;;29.30;46.50;;;;;;5065864;28;20629;-74
2023/07/08 10:51:34;;;;;;;1.70;1.40;;;29.50;46.50;;;;;;5066071;28;20757;-73
2023/07/08 10:54:24;;;;;;;2.70;1.80;;;29.70;45.80;;;;;;5064581;28;20725;-74
2023/07/08 10:56:55;;;;;;;2.33;1.70;;;29.70;45.40;;;;;;5064560;28;20658;-73
2023/07/08 10:59:39;;;;;;;2.17;1.70;;;29.60;45.80;;;;;;5065226;28;20640;-73
2023/07/08 11:02:35;;;;;;;1.70;1.60;;;29.40;45.40;;;;;;5066179;28;20657;-74
2023/07/08 11:05:16;;;;;;;2.93;2.07;;;29.30;46.10;;;;;;5064971;28;21529;-73
2023/07/08 11:07:46;;;;;;;2.83;1.90;;;29.40;46.30;;;;;;5064726;28;20648;-73
2023/07/08 11:10:21;;;;;;;1.90;1.80;;;29.70;46.10;;;;;;5064777;28;21198;-74
2023/07/08 11:12:53;;;;;;;1.73;1.37;;;30.00;45.60;;;;;;5064691;28;20628;-74
2023/07/08 11:15:25;;;;;;;2.60;2.13;;;30.10;44.90;;;;;;5065588;28;20643;-73
2023/07/08 11:17:59;;;;;;;2.50;1.83;;;29.90;45.20;;;;;;5065387;28;20771;-73
2023/07/08 11:20:41;;;;;;;2.50;1.63;;;29.90;46.30;;;;;;5064325;28;20648;-73
2023/07/08 11:23:23;;;;;;;1.13;1.13;;;29.90;45.40;;;;;;5064605;28;20640;-73
2023/07/08 11:25:54;;;;;;;2.40;1.50;;;30.10;45.30;;;;;;5067291;28;20734;-73
2023/07/08 11:28:23;;;;;;;1.60;1.50;;;30.30;45.10;;;;;;5069086;28;20629;-73
2023/07/08 11:30:52;;;;;;;2.80;2.13;;;30.90;45.70;;;;;;5067931;28;21004;-73
2023/07/08 11:33:25;;;;;;;2.40;2.00;;;31.40;44.00;;;;;;5068244;28;20728;-73
2023/07/08 11:35:56;;;;;;;1.83;1.60;;;31.70;44.30;;;;;;5068095;28;20649;-72
2023/07/08 11:38:23;;;;;;;1.70;1.30;;;32.10;43.60;;;;;;5067983;28;20729;-72
2023/07/08 11:40:53;;;;;;;2.93;2.73;;;32.50;43.30;;;;;;5069523;28;20722;-72
2023/07/08 11:43:23;;;;;;;1.50;1.40;;;32.70;42.20;;;;;;5070848;28;20952;-72
2023/07/08 11:45:51;;;;;;;2.33;1.60;;;33.00;42.70;;;;;;5071165;28;20684;-72
2023/07/08 11:48:23;;;;;;;1.97;1.83;;;33.70;41.80;;;;;;5070419;28;20618;-72
2023/07/08 11:50:52;;;;;;;1.87;1.50;;;34.00;41.10;;;;;;5070082;28;20681;-72
2023/07/08 11:53:35;;;;;;;2.20;1.70;;;34.20;40.10;;;;;;5069751;28;20629;-72
2023/07/08 11:56:04;;;;;;;2.07;1.87;;;34.20;40.30;;;;;;5070235;28;20667;-73
2023/07/08 11:58:33;;;;;;;2.13;2.03;;;34.80;39.80;;;;;;5070051;28;21255;-72
2023/07/08 12:01:04;;;;;;;2.27;1.87;;;35.10;39.30;;;;;;5070274;28;20653;-72
2023/07/08 12:03:37;;;;;;;2.40;1.53;;;35.40;38.90;;;;;;5069620;28;20617;-73
2023/07/08 12:06:51;;;;;;;1.70;1.60;;;36.00;39.10;;;;;;5070659;28;20799;-73
2023/07/08 12:09:26;;;;;;;1.60;1.50;;;37.00;37.90;;;;;;5044448;28;20629;-74
2023/07/08 12:11:59;;;;;;;2.00;1.23;;;38.00;36.60;;;;;;5069464;28;20222;-74
2023/07/08 12:14:28;;;;;;;1.45;1.35;;;38.20;35.50;;;;;;5057774;28;20202;-74
2023/07/08 12:16:55;;;;;;;1.13;1.08;;;38.80;36.00;;;;;;5067374;28;20230;-72
2023/07/08 12:19:26;;;;;;;1.10;1.10;;;39.50;36.00;;;;;;5069368;28;20207;-72
2023/07/08 12:21:53;;;;;;;1.90;1.80;;;40.00;34.20;;;;;;5065537;28;20227;-72
2023/07/08 12:24:25;;;;;;;1.63;1.52;;;40.50;34.20;;;;;;5069307;28;20221;-74
2023/07/08 12:26:52;;;;;;;1.80;1.70;;;41.00;32.80;;;;;;5068769;28;20239;-74
2023/07/08 12:29:18;;;;;;;1.92;1.60;;;41.00;32.90;;;;;;5069375;28;20190;-74
2023/07/08 12:31:46;;;;;;;1.65;1.55;;;41.20;32.40;;;;;;5070159;28;20321;-73
2023/07/08 12:34:16;;;;;;;1.13;1.02;;;41.40;32.10;;;;;;5069801;28;20199;-73
2023/07/08 12:36:46;;;;;;;1.38;1.30;;;41.40;32.00;;;;;;5069025;28;20592;-73
2023/07/08 12:39:16;;;;;;;1.35;1.20;;;41.40;31.70;;;;;;5068366;28;20201;-73
2023/07/08 12:41:44;;;;;;;1.60;1.50;;;41.50;31.50;;;;;;5068786;28;20223;-73
2023/07/08 12:44:19;;;;;;;1.10;1.10;;;41.80;31.80;;;;;;5066693;28;20195;-73
2023/07/08 12:46:47;;;;;;;1.45;1.35;;;41.60;31.40;;;;;;5069681;28;20237;-73
2023/07/08 12:49:15;;;;;;;1.50;1.40;;;42.00;31.30;;;;;;5068645;28;20186;-73
2023/07/08 12:51:45;;;;;;;1.42;1.35;;;42.60;30.60;;;;;;5069932;28;20234;-73
2023/07/08 12:54:13;;;;;;;1.27;1.23;;;42.60;30.40;;;;;;5068152;28;20680;-73
2023/07/08 12:56:43;;;;;;;1.70;1.60;;;42.80;31.50;;;;;;5069223;28;20226;-73
2023/07/08 12:59:17;;;;;;;2.35;1.50;;;42.70;30.70;;;;;;5067625;28;20195;-73
2023/07/08 13:01:48;;;;;;;1.63;1.30;;;42.80;30.40;;;;;;5069144;28;20698;-73
2023/07/08 13:04:15;;;;;;;1.33;1.23;;;42.80;30.00;;;;;;5069000;28;20195;-73
2023/07/08 13:06:46;;;;;;;2.17;2.05;;;42.60;30.20;;;;;;5069224;28;20222;-73
2023/07/08 13:09:27;;;;;;;1.60;1.50;;;42.20;30.60;;;;;;5062499;28;21370;-73